createdAt,value
2023-05-19T00:02:22.711Z,15.16
2023-05-19T00:04:49.636Z,15.15
2023-05-19T00:07:18.086Z,15.16
2023-05-19T00:09:45.058Z,15.15
2023-05-19T00:12:12.835Z,15.15
2023-05-19T00:14:39.801Z,15.15
2023-05-19T00:17:07.939Z,15.14
2023-05-19T00:19:34.631Z,15.12
2023-05-19T00:22:01.309Z,15.11
2023-05-19T00:24:28.243Z,15.10
2023-05-19T00:26:54.899Z,15.09
2023-05-19T00:29:21.650Z,15.08
2023-05-19T00:31:48.365Z,15.06
2023-05-19T00:34:15.127Z,15.03
2023-05-19T00:36:41.912Z,14.98
2023-05-19T00:39:08.657Z,14.93
2023-05-19T00:41:35.337Z,14.91
2023-05-19T00:44:02.022Z,14.89
2023-05-19T00:46:30.507Z,14.88
2023-05-19T00:48:57.260Z,14.88
2023-05-19T00:51:24.421Z,14.88
2023-05-19T00:53:52.187Z,14.87
2023-05-19T00:56:18.969Z,14.84
2023-05-19T00:58:45.787Z,14.84
2023-05-19T01:01:14.702Z,14.84
2023-05-19T01:03:43.073Z,14.84
2023-05-19T01:06:10.110Z,14.84
2023-05-19T01:08:37.912Z,14.83
2023-05-19T01:11:05.301Z,14.83
2023-05-19T01:13:32.038Z,14.83
2023-05-19T01:16:08.900Z,14.83
2023-05-19T01:18:56.437Z,14.82
2023-05-19T01:21:53.542Z,14.82
2023-05-19T01:24:24.469Z,14.82
2023-05-19T01:27:06.638Z,14.81
2023-05-19T01:30:15.270Z,14.81
2023-05-19T01:32:42.208Z,14.80
2023-05-19T01:35:09.614Z,14.78
2023-05-19T01:37:37.437Z,14.75
2023-05-19T01:40:04.562Z,14.75
2023-05-19T01:42:37.278Z,14.74
2023-05-19T01:45:06.798Z,14.74
2023-05-19T01:47:35.212Z,14.75
2023-05-19T01:50:01.976Z,14.76
2023-05-19T01:52:28.710Z,14.78
2023-05-19T01:54:55.411Z,14.80
2023-05-19T01:57:34.121Z,14.83
2023-05-19T02:00:11.837Z,14.86
2023-05-19T02:02:54.941Z,14.90
2023-05-19T02:05:31.641Z,14.96
2023-05-19T02:08:06.730Z,15.04
2023-05-19T02:10:33.626Z,15.11
2023-05-19T02:13:01.630Z,15.17
2023-05-19T02:15:30.286Z,15.23
2023-05-19T02:17:57.090Z,15.30
2023-05-19T02:20:23.841Z,15.37
2023-05-19T02:22:50.672Z,15.46
2023-05-19T02:25:18.400Z,15.54
2023-05-19T02:27:45.070Z,15.60
2023-05-19T02:30:11.841Z,15.66
2023-05-19T02:32:38.554Z,15.70
2023-05-19T02:35:05.960Z,15.75
2023-05-19T02:37:32.688Z,15.83
2023-05-19T02:39:59.386Z,15.94
2023-05-19T02:42:26.002Z,16.06
2023-05-19T02:44:54.754Z,16.17
2023-05-19T02:47:21.568Z,16.28
2023-05-19T02:49:48.261Z,16.37
2023-05-19T02:52:15.547Z,16.44
2023-05-19T02:54:42.422Z,16.50
2023-05-19T02:57:09.096Z,16.56
2023-05-19T02:59:36.718Z,16.62
2023-05-19T03:02:03.686Z,16.67
2023-05-19T03:04:30.575Z,16.72
2023-05-19T03:06:57.899Z,16.78
2023-05-19T03:09:24.784Z,16.82
2023-05-19T03:11:51.562Z,16.86
2023-05-19T03:14:18.886Z,16.90
2023-05-19T03:16:45.912Z,16.92
2023-05-19T03:19:12.877Z,16.93
2023-05-19T03:21:39.663Z,16.93
2023-05-19T03:24:07.241Z,16.93
2023-05-19T03:26:34.621Z,16.92
2023-05-19T03:29:01.605Z,16.93
2023-05-19T03:31:30.701Z,16.92
2023-05-19T03:33:58.604Z,16.92
2023-05-19T03:36:26.460Z,16.90
2023-05-19T03:38:53.290Z,16.89
2023-05-19T03:41:20.101Z,16.90
2023-05-19T03:43:46.897Z,16.92
2023-05-19T03:46:14.086Z,16.95
2023-05-19T03:48:59.489Z,16.97
2023-05-19T03:52:03.481Z,17.01
2023-05-19T03:54:53.075Z,17.04
2023-05-19T03:57:19.866Z,17.05
2023-05-19T03:59:47.330Z,17.07
2023-05-19T04:02:14.055Z,17.07
2023-05-19T04:04:41.535Z,17.07
2023-05-19T04:07:08.281Z,17.09
2023-05-19T04:09:35.691Z,17.13
2023-05-19T04:12:05.608Z,17.19
2023-05-19T04:14:32.359Z,17.27
2023-05-19T04:16:59.137Z,17.34
2023-05-19T04:19:27.250Z,17.40
2023-05-19T04:21:55.279Z,17.45
2023-05-19T04:24:22.114Z,17.49
2023-05-19T04:26:49.039Z,17.52
2023-05-19T04:29:18.260Z,17.55
2023-05-19T04:31:45.522Z,17.58
2023-05-19T04:34:12.301Z,17.62
2023-05-19T04:36:39.330Z,17.66
2023-05-19T04:39:09.369Z,17.70
2023-05-19T04:41:36.142Z,17.75
2023-05-19T04:44:04.097Z,17.80
2023-05-19T04:46:30.774Z,17.85
2023-05-19T04:48:57.696Z,17.91
2023-05-19T04:51:29.845Z,17.97
2023-05-19T04:53:58.691Z,18.03
2023-05-19T04:56:27.569Z,18.08
2023-05-19T04:58:55.989Z,18.14
2023-05-19T05:01:26.370Z,18.19
2023-05-19T05:03:59.393Z,18.25
2023-05-19T05:06:28.822Z,18.30
2023-05-19T05:08:57.060Z,18.33
2023-05-19T05:11:25.004Z,18.39
2023-05-19T05:13:52.526Z,18.42
2023-05-19T05:16:20.056Z,18.45
2023-05-19T05:18:47.408Z,18.47
2023-05-19T05:21:14.473Z,18.50
2023-05-19T05:23:41.916Z,18.53
2023-05-19T05:26:11.507Z,18.52
2023-05-19T05:28:38.655Z,18.52
2023-05-19T05:31:06.034Z,18.54
2023-05-19T05:33:33.036Z,18.55
2023-05-19T05:35:59.740Z,18.57
2023-05-19T05:38:26.687Z,18.59
2023-05-19T05:40:53.515Z,18.60
2023-05-19T05:43:20.159Z,18.62
2023-05-19T05:45:51.340Z,18.63
2023-05-19T05:48:18.509Z,18.64
2023-05-19T05:50:45.482Z,18.66
2023-05-19T05:53:19.586Z,18.65
2023-05-19T05:55:47.579Z,18.65
2023-05-19T05:58:15.796Z,18.67
2023-05-19T06:00:43.597Z,18.70
2023-05-19T06:05:38.319Z,18.73
2023-05-19T06:08:05.041Z,18.75
2023-05-19T06:10:32.467Z,18.78
2023-05-19T06:12:59.345Z,18.80
2023-05-19T06:15:26.598Z,18.81
2023-05-19T06:18:10.848Z,18.84
2023-05-19T06:20:39.285Z,18.88
2023-05-19T06:23:06.050Z,18.90
2023-05-19T06:25:32.913Z,18.92
2023-05-19T06:27:59.863Z,18.98
2023-05-19T06:30:27.666Z,19.01
2023-05-19T06:33:32.871Z,19.06
2023-05-19T06:35:59.785Z,19.09
2023-05-19T06:38:26.779Z,19.14
2023-05-19T06:40:53.498Z,19.18
2023-05-19T06:43:20.344Z,19.21
2023-05-19T06:45:58.322Z,19.25
2023-05-19T06:48:25.926Z,19.30
2023-05-19T06:50:52.790Z,19.38
2023-05-19T06:53:21.001Z,19.42
2023-05-19T06:55:58.583Z,19.45
2023-05-19T06:58:27.802Z,19.47
2023-05-19T07:00:55.792Z,19.50
2023-05-19T07:03:24.054Z,19.51
2023-05-19T07:05:51.144Z,19.52
2023-05-19T07:08:18.057Z,19.58
2023-05-19T07:10:45.209Z,19.66
2023-05-19T07:13:12.948Z,19.76
2023-05-19T07:15:39.747Z,19.86
2023-05-19T07:18:06.544Z,19.97
2023-05-19T07:20:33.588Z,20.05
2023-05-19T07:23:02.796Z,20.09
2023-05-19T07:25:30.563Z,20.11
2023-05-19T07:27:57.489Z,20.19
2023-05-19T07:30:24.251Z,20.29
2023-05-19T07:32:50.938Z,20.44
2023-05-19T07:35:17.725Z,20.58
2023-05-19T07:37:44.426Z,20.75
2023-05-19T07:40:11.630Z,20.91
2023-05-19T07:42:38.529Z,21.03
2023-05-19T07:45:06.090Z,21.13
2023-05-19T07:47:32.870Z,21.16
2023-05-19T07:49:59.762Z,21.17
2023-05-19T07:52:26.857Z,21.25
2023-05-19T07:54:53.618Z,21.34
2023-05-19T07:57:20.510Z,21.45
2023-05-19T07:59:47.254Z,21.54
2023-05-19T08:02:13.910Z,21.69
2023-05-19T08:04:40.708Z,21.88
2023-05-19T08:07:07.710Z,22.01
2023-05-19T08:09:34.384Z,22.17
2023-05-19T08:12:02.186Z,22.32
2023-05-19T08:14:28.944Z,22.38
2023-05-19T08:16:55.773Z,22.39
2023-05-19T08:19:22.745Z,22.53
2023-05-19T08:21:49.719Z,22.71
2023-05-19T08:24:16.448Z,22.83
2023-05-19T08:26:44.025Z,22.92
2023-05-19T08:29:10.808Z,23.01
2023-05-19T08:31:37.602Z,23.01
2023-05-19T08:34:04.575Z,23.07
2023-05-19T08:36:31.357Z,23.25
2023-05-19T08:38:57.990Z,23.48
2023-05-19T08:41:24.768Z,23.72
2023-05-19T08:43:51.393Z,23.98
2023-05-19T08:46:18.534Z,24.33
2023-05-19T08:48:45.514Z,24.68
2023-05-19T08:51:34.429Z,25.00
2023-05-19T08:54:09.800Z,25.29
2023-05-19T08:56:36.714Z,25.40
2023-05-19T08:59:04.687Z,25.48
2023-05-19T09:01:31.538Z,25.64
2023-05-19T09:03:59.128Z,25.73
2023-05-19T09:06:26.484Z,25.89
2023-05-19T09:08:53.488Z,26.10
2023-05-19T09:11:20.229Z,26.12
2023-05-19T09:13:47.096Z,26.03
2023-05-19T09:16:13.847Z,26.06
2023-05-19T09:18:43.517Z,26.16
2023-05-19T09:21:11.279Z,26.19
2023-05-19T09:23:38.092Z,26.26
2023-05-19T09:26:07.884Z,26.42
2023-05-19T09:28:36.549Z,26.56
2023-05-19T09:31:05.067Z,26.67
2023-05-19T09:33:33.778Z,26.70
2023-05-19T09:36:00.837Z,26.69
2023-05-19T09:38:27.820Z,26.55
2023-05-19T09:40:58.459Z,26.48
2023-05-19T09:43:29.287Z,26.46
2023-05-19T09:46:00.722Z,26.40
2023-05-19T09:48:28.233Z,26.27
2023-05-19T09:50:55.067Z,26.06
2023-05-19T09:53:22.433Z,25.83
2023-05-19T09:55:50.030Z,25.63
2023-05-19T09:58:21.610Z,25.66
2023-05-19T10:00:48.530Z,25.82
2023-05-19T10:03:16.121Z,26.01
2023-05-19T10:05:42.915Z,26.14
2023-05-19T10:08:10.589Z,26.04
2023-05-19T10:10:38.428Z,25.79
2023-05-19T10:13:05.935Z,25.72
2023-05-19T10:15:36.110Z,25.78
2023-05-19T10:18:05.240Z,25.88
2023-05-19T10:20:32.114Z,26.03
2023-05-19T10:25:00.094Z,26.24
2023-05-19T10:27:27.280Z,26.11
2023-05-19T10:29:54.495Z,25.93
2023-05-19T10:32:24.038Z,25.80
2023-05-19T10:35:12.347Z,25.77
2023-05-19T10:37:56.882Z,25.82
2023-05-19T10:40:28.852Z,25.81
2023-05-19T10:43:11.839Z,25.75
2023-05-19T10:45:47.936Z,25.71
2023-05-19T10:48:18.220Z,25.65
2023-05-19T10:50:46.199Z,25.66
2023-05-19T10:53:21.195Z,25.74
2023-05-19T10:56:02.574Z,25.83
2023-05-19T10:58:44.541Z,25.95
2023-05-19T11:01:15.086Z,26.06
2023-05-19T11:03:46.858Z,25.98
2023-05-19T11:06:29.935Z,25.90
2023-05-19T11:09:05.726Z,26.07
2023-05-19T11:11:48.362Z,26.16
2023-05-19T11:14:18.938Z,25.98
2023-05-19T11:16:52.796Z,25.99
2023-05-19T11:19:29.108Z,26.04
2023-05-19T11:21:56.310Z,26.12
2023-05-19T11:24:44.749Z,26.23
2023-05-19T11:27:31.636Z,26.43
2023-05-19T11:30:05.352Z,26.57
2023-05-19T11:32:33.882Z,26.55
2023-05-19T11:35:00.928Z,26.33
2023-05-19T11:37:30.860Z,26.04
2023-05-19T11:39:58.322Z,25.93
2023-05-19T11:42:25.065Z,25.85
2023-05-19T11:44:55.088Z,25.81
2023-05-19T11:47:21.756Z,25.77
2023-05-19T11:49:48.499Z,25.73
2023-05-19T11:52:15.232Z,25.73
2023-05-19T11:54:42.226Z,25.76
2023-05-19T11:57:11.949Z,25.84
2023-05-19T11:59:40.618Z,25.87
2023-05-19T12:02:13.924Z,25.91
2023-05-19T12:04:41.133Z,25.98
2023-05-19T12:07:08.317Z,25.95
2023-05-19T12:09:35.019Z,25.85
2023-05-19T12:12:01.728Z,25.79
2023-05-19T12:14:29.904Z,25.80
2023-05-19T12:16:56.953Z,25.80
2023-05-19T12:19:25.903Z,25.84
2023-05-19T12:21:53.103Z,25.85
2023-05-19T12:24:20.473Z,25.80
2023-05-19T12:26:47.216Z,25.74
2023-05-19T12:29:13.915Z,25.56
2023-05-19T12:31:40.747Z,25.41
2023-05-19T12:34:07.472Z,25.25
2023-05-19T12:36:34.368Z,25.13
2023-05-19T12:39:01.229Z,25.14
2023-05-19T12:41:29.157Z,25.19
2023-05-19T12:43:55.918Z,25.20
2023-05-19T12:46:22.910Z,25.13
2023-05-19T12:48:49.807Z,24.98
2023-05-19T12:51:20.239Z,24.82
2023-05-19T12:53:47.526Z,24.79
2023-05-19T12:56:15.088Z,24.82
2023-05-19T12:58:42.505Z,24.80
2023-05-19T13:01:16.413Z,24.82
2023-05-19T13:03:43.519Z,24.80
2023-05-19T13:06:11.410Z,24.75
2023-05-19T13:08:39.601Z,24.65
2023-05-19T13:11:06.656Z,24.62
2023-05-19T13:13:33.468Z,24.66
2023-05-19T13:16:00.155Z,24.69
2023-05-19T13:18:27.729Z,24.73
2023-05-19T13:20:54.766Z,24.70
2023-05-19T13:23:21.545Z,24.71
2023-05-19T13:25:49.473Z,24.70
2023-05-19T13:28:16.212Z,24.67
2023-05-19T13:30:43.692Z,24.70
2023-05-19T13:33:11.527Z,24.66
2023-05-19T13:35:38.919Z,24.52
2023-05-19T13:38:06.788Z,24.53
2023-05-19T13:40:34.976Z,24.55
2023-05-19T13:43:02.767Z,24.58
2023-05-19T13:45:29.498Z,24.57
2023-05-19T13:47:56.567Z,24.54
2023-05-19T13:50:23.491Z,24.51
2023-05-19T13:52:50.164Z,24.48
2023-05-19T13:55:16.970Z,24.41
2023-05-19T13:57:44.359Z,24.32
2023-05-19T14:00:11.968Z,24.20
2023-05-19T14:02:39.330Z,24.09
2023-05-19T14:05:07.344Z,24.01
2023-05-19T14:07:35.416Z,23.86
2023-05-19T14:10:03.127Z,23.75
2023-05-19T14:12:36.825Z,23.69
2023-05-19T14:15:12.488Z,23.65
2023-05-19T14:17:39.290Z,23.55
2023-05-19T14:20:07.588Z,23.43
2023-05-19T14:22:34.300Z,23.44
2023-05-19T14:25:02.014Z,23.48
2023-05-19T14:27:28.672Z,23.51
2023-05-19T14:29:55.313Z,23.53
2023-05-19T14:32:22.425Z,23.57
2023-05-19T14:34:52.880Z,23.59
2023-05-19T14:37:20.223Z,23.61
2023-05-19T14:39:46.886Z,23.60
2023-05-19T14:42:13.599Z,23.55
2023-05-19T14:44:40.346Z,23.50
2023-05-19T14:47:07.490Z,23.44
2023-05-19T14:49:34.737Z,23.38
2023-05-19T14:52:01.958Z,23.32
2023-05-19T14:54:29.496Z,23.20
2023-05-19T14:56:56.276Z,23.05
2023-05-19T14:59:23.058Z,22.97
2023-05-19T15:01:49.726Z,22.95
2023-05-19T15:04:16.804Z,22.99
2023-05-19T15:06:43.682Z,23.01
2023-05-19T15:09:14.699Z,23.00
2023-05-19T15:11:41.571Z,22.97
2023-05-19T15:14:08.250Z,22.92
2023-05-19T15:16:35.039Z,22.89
2023-05-19T15:19:01.837Z,22.87
2023-05-19T15:21:28.578Z,22.81
2023-05-19T15:23:55.521Z,22.71
2023-05-19T15:26:22.400Z,22.59
2023-05-19T15:28:49.076Z,22.40
2023-05-19T15:31:15.815Z,22.31
2023-05-19T15:33:42.465Z,22.29
2023-05-19T15:36:09.287Z,22.30
2023-05-19T15:38:36.480Z,22.27
2023-05-19T15:41:06.495Z,22.25
2023-05-19T15:43:33.165Z,22.21
2023-05-19T15:45:59.883Z,22.18
2023-05-19T15:48:28.889Z,22.13
2023-05-19T15:50:58.106Z,22.09
2023-05-19T15:53:25.701Z,22.08
2023-05-19T15:55:52.413Z,22.07
2023-05-19T15:58:19.176Z,22.01
2023-05-19T16:00:46.111Z,21.95
2023-05-19T16:03:12.987Z,21.90
2023-05-19T16:05:39.780Z,21.84
2023-05-19T16:08:08.467Z,21.77
2023-05-19T16:10:35.775Z,21.72
2023-05-19T16:13:02.602Z,21.68
2023-05-19T16:15:29.293Z,21.64
2023-05-19T16:17:56.766Z,21.57
2023-05-19T16:20:26.861Z,21.50
2023-05-19T16:22:54.248Z,21.42
2023-05-19T16:25:20.931Z,21.35
2023-05-19T16:27:47.884Z,21.29
2023-05-19T16:30:14.769Z,21.24
2023-05-19T16:32:41.529Z,21.21
2023-05-19T16:35:08.993Z,21.18
2023-05-19T16:37:35.726Z,21.15
2023-05-19T16:40:02.651Z,21.12
2023-05-19T16:42:29.324Z,21.10
2023-05-19T16:44:55.990Z,21.06
2023-05-19T16:47:22.649Z,21.01
2023-05-19T16:49:49.469Z,20.96
2023-05-19T16:52:16.293Z,20.91
2023-05-19T16:54:42.968Z,20.83
2023-05-19T16:57:09.981Z,20.75
2023-05-19T16:59:36.626Z,20.69
2023-05-19T17:02:03.581Z,20.64
2023-05-19T17:04:31.032Z,20.61
2023-05-19T17:06:57.866Z,20.55
2023-05-19T17:09:26.287Z,20.49
2023-05-19T17:11:53.567Z,20.42
2023-05-19T17:14:20.946Z,20.33
2023-05-19T17:16:47.960Z,20.27
2023-05-19T17:19:16.259Z,20.24
2023-05-19T17:21:43.100Z,20.19
2023-05-19T17:24:09.772Z,20.12
2023-05-19T17:26:36.521Z,20.08
2023-05-19T17:29:03.180Z,20.03
2023-05-19T17:31:29.904Z,19.99
2023-05-19T17:33:56.623Z,19.95
2023-05-19T17:36:23.262Z,19.93
2023-05-19T17:38:49.999Z,19.91
2023-05-19T17:41:16.927Z,19.87
2023-05-19T17:43:43.693Z,19.85
2023-05-19T17:46:10.479Z,19.81
2023-05-19T17:48:37.304Z,19.76
2023-05-19T17:51:05.834Z,19.72
2023-05-19T17:53:32.809Z,19.66
2023-05-19T17:56:00.893Z,19.62
2023-05-19T17:58:27.943Z,19.59
2023-05-19T18:00:55.340Z,19.56
2023-05-19T18:03:22.892Z,19.53
2023-05-19T18:05:50.142Z,19.48
2023-05-19T18:08:17.057Z,19.42
2023-05-19T18:10:43.923Z,19.34
2023-05-19T18:13:11.522Z,19.27
2023-05-19T18:15:38.229Z,19.23
2023-05-19T18:18:07.500Z,19.19
2023-05-19T18:20:35.018Z,19.14
2023-05-19T18:23:02.688Z,19.08
2023-05-19T18:25:29.420Z,19.04
2023-05-19T18:27:56.141Z,19.00
2023-05-19T18:30:23.358Z,18.97
2023-05-19T18:32:50.175Z,18.92
2023-05-19T18:35:16.904Z,18.86
2023-05-19T18:37:43.536Z,18.80
2023-05-19T18:40:10.584Z,18.76
2023-05-19T18:42:37.789Z,18.71
2023-05-19T18:45:05.049Z,18.65
2023-05-19T18:47:31.939Z,18.58
2023-05-19T18:49:58.956Z,18.52
2023-05-19T18:52:27.116Z,18.46
2023-05-19T18:54:54.364Z,18.41
2023-05-19T18:57:21.005Z,18.35
2023-05-19T18:59:47.644Z,18.29
2023-05-19T19:02:14.330Z,18.22
2023-05-19T19:04:41.130Z,18.15
2023-05-19T19:07:07.820Z,18.07
2023-05-19T19:09:34.615Z,18.00
2023-05-19T19:12:01.301Z,17.93
2023-05-19T19:14:28.007Z,17.89
2023-05-19T19:16:54.751Z,17.85
2023-05-19T19:19:23.713Z,17.79
2023-05-19T19:21:50.691Z,17.74
2023-05-19T19:24:17.378Z,17.67
2023-05-19T19:26:44.114Z,17.59
2023-05-19T19:29:10.914Z,17.51
2023-05-19T19:31:37.645Z,17.43
2023-05-19T19:34:09.131Z,17.34
2023-05-19T19:36:36.249Z,17.26
2023-05-19T19:39:03.016Z,17.19
2023-05-19T19:41:30.127Z,17.13
2023-05-19T19:43:56.765Z,17.08
2023-05-19T19:46:23.485Z,17.01
2023-05-19T19:48:51.215Z,16.94
2023-05-19T19:51:18.126Z,16.88
2023-05-19T19:53:44.830Z,16.80
2023-05-19T19:56:11.558Z,16.74
2023-05-19T19:58:38.264Z,16.68
2023-05-19T20:01:06.220Z,16.63
2023-05-19T20:03:33.487Z,16.54
2023-05-19T20:06:00.509Z,16.47
2023-05-19T20:08:27.454Z,16.41
2023-05-19T20:10:54.365Z,16.36
2023-05-19T20:13:21.336Z,16.31
2023-05-19T20:15:48.133Z,16.27
2023-05-19T20:18:15.007Z,16.22
2023-05-19T20:20:41.758Z,16.17
2023-05-19T20:23:08.487Z,16.12
2023-05-19T20:25:51.028Z,16.06
2023-05-19T20:28:25.866Z,16.00
2023-05-19T20:30:52.508Z,15.95
2023-05-19T20:33:19.203Z,15.91
2023-05-19T20:35:45.953Z,15.87
2023-05-19T20:38:12.704Z,15.83
2023-05-19T20:40:39.509Z,15.79
2023-05-19T20:43:06.297Z,15.73
2023-05-19T20:45:33.520Z,15.66
2023-05-19T20:48:02.914Z,15.60
2023-05-19T20:50:29.877Z,15.55
2023-05-19T20:52:56.549Z,15.50
2023-05-19T20:55:23.207Z,15.47
2023-05-19T20:57:49.892Z,15.43
2023-05-19T21:00:17.140Z,15.37
2023-05-19T21:02:44.390Z,15.33
2023-05-19T21:05:11.232Z,15.28
2023-05-19T21:07:37.939Z,15.25
2023-05-19T21:10:05.002Z,15.23
2023-05-19T21:12:34.260Z,15.22
2023-05-19T21:15:02.140Z,15.22
2023-05-19T21:17:29.306Z,15.20
2023-05-19T21:19:59.446Z,15.19
2023-05-19T21:22:26.728Z,15.15
2023-05-19T21:24:54.408Z,15.11
2023-05-19T21:27:21.140Z,15.06
2023-05-19T21:29:51.630Z,15.01
2023-05-19T21:32:18.337Z,14.99
2023-05-19T21:34:45.182Z,14.96
2023-05-19T21:37:11.914Z,14.94
2023-05-19T21:39:38.628Z,14.92
2023-05-19T21:42:06.468Z,14.89
2023-05-19T21:44:33.244Z,14.85
2023-05-19T21:46:59.922Z,14.83
2023-05-19T21:49:26.619Z,14.82
2023-05-19T21:51:53.250Z,14.82
2023-05-19T21:54:20.020Z,14.80
2023-05-19T21:56:46.769Z,14.81
2023-05-19T21:59:13.625Z,14.80
2023-05-19T22:01:40.878Z,14.79
2023-05-19T22:04:09.694Z,14.79
2023-05-19T22:06:36.670Z,14.81
2023-05-19T22:09:04.421Z,14.86
2023-05-19T22:11:31.468Z,14.87
2023-05-19T22:13:58.220Z,14.90
2023-05-19T22:16:24.959Z,14.95
2023-05-19T22:18:51.768Z,15.02
2023-05-19T22:21:18.507Z,15.06
2023-05-19T22:23:45.221Z,15.08
2023-05-19T22:26:11.883Z,15.10
2023-05-19T22:28:38.594Z,15.13
2023-05-19T22:31:05.432Z,15.15
2023-05-19T22:33:32.196Z,15.17
2023-05-19T22:35:58.816Z,15.17
2023-05-19T22:38:25.559Z,15.19
2023-05-19T22:42:46.680Z,15.23
2023-05-19T22:45:13.491Z,15.21
2023-05-19T22:47:40.211Z,15.21
2023-05-19T22:50:09.866Z,15.24
2023-05-19T22:52:39.400Z,15.26
2023-05-19T22:55:06.839Z,15.28
2023-05-19T22:57:33.542Z,15.31
2023-05-19T23:00:00.216Z,15.34
2023-05-19T23:02:26.983Z,15.36
2023-05-19T23:04:53.956Z,15.37
2023-05-19T23:07:20.696Z,15.37
2023-05-19T23:09:47.378Z,15.38
2023-05-19T23:12:14.123Z,15.37
2023-05-19T23:14:40.853Z,15.38
2023-05-19T23:17:07.691Z,15.38
2023-05-19T23:19:35.374Z,15.38
2023-05-19T23:22:02.007Z,15.39
2023-05-19T23:24:28.811Z,15.40
2023-05-19T23:26:55.514Z,15.39
2023-05-19T23:29:22.141Z,15.39
2023-05-19T23:31:48.999Z,15.40
2023-05-19T23:34:15.948Z,15.42
2023-05-19T23:36:42.668Z,15.46
2023-05-19T23:39:09.453Z,15.48
2023-05-19T23:41:36.720Z,15.49
2023-05-19T23:44:03.458Z,15.50
2023-05-19T23:46:30.298Z,15.50
2023-05-19T23:48:57.023Z,15.50
2023-05-19T23:51:23.697Z,15.51
2023-05-19T23:53:50.356Z,15.52
2023-05-19T23:56:17.093Z,15.53
2023-05-19T23:58:43.751Z,15.53
